Current Weather

Sussex

Sussex, New Jersey (KFWN)

Report from: Friday, February 23, 2024 3:10 PM EST
Current time: Friday, February 23, 2024 3:54 PM EST

Nearby weather – Weather history – Daily summaries
Weather forecast

Temperature7.2°C (45.0°F)
Wind chill5.1°C (41.2°F)
Dew point2.2°C (36.0°F)
Winds 6 kts (3.1 m/s, 6.9 mph) Vrb
Winds variableWinds variable
Visibility10 mi. (16.1 km)
Clouds Scattered clouds 2,000 ft. (610 m)
Altimeter29.46 in.Hg (998 mB)
Relative humidity71 %
Density altitude-297 ft. (-91 m)
Remarks Fully automated report
Automated weather observing station with precipitation discriminator
Flight conditions Visual Meteorological Conditions
Raw dataKFWN 232010Z AUTO VRB06KT 10SM SCT020 07/02 A2946 RMK AO2 T00720022
An error has occurred. This application may no longer respond until reloaded. Reload 🗙